sensor_id;sensor_type;location;lat;lon;timestamp;pressure;altitude;pressure_sealevel;temperature;humidity
84022;BME280;74108;48.636;9.492;2023-12-29T00:01:50;97859.84;;;11.25;66.09
84022;BME280;74108;48.636;9.492;2023-12-29T00:04:15;97845.88;;;11.19;65.38
84022;BME280;74108;48.636;9.492;2023-12-29T00:06:41;97851.69;;;11.21;65.96
84022;BME280;74108;48.636;9.492;2023-12-29T00:09:09;97844.94;;;11.30;64.96
84022;BME280;74108;48.636;9.492;2023-12-29T00:11:35;97844.75;;;11.37;65.14
84022;BME280;74108;48.636;9.492;2023-12-29T00:14:00;97837.69;;;11.43;64.35
84022;BME280;74108;48.636;9.492;2023-12-29T00:16:29;97844.59;;;11.49;63.61
84022;BME280;74108;48.636;9.492;2023-12-29T00:18:54;97836.97;;;11.52;63.18
84022;BME280;74108;48.636;9.492;2023-12-29T00:21:19;97837.47;;;11.44;64.37
84022;BME280;74108;48.636;9.492;2023-12-29T00:23:45;97836.13;;;11.47;64.31
84022;BME280;74108;48.636;9.492;2023-12-29T00:26:10;97836.66;;;11.44;64.42
84022;BME280;74108;48.636;9.492;2023-12-29T00:28:35;97853.47;;;11.48;64.18
84022;BME280;74108;48.636;9.492;2023-12-29T00:31:06;97847.69;;;11.46;63.74
84022;BME280;74108;48.636;9.492;2023-12-29T00:33:31;97844.81;;;11.47;64.55
84022;BME280;74108;48.636;9.492;2023-12-29T00:35:57;97852.03;;;11.62;64.53
84022;BME280;74108;48.636;9.492;2023-12-29T00:38:23;97848.88;;;11.60;64.12
84022;BME280;74108;48.636;9.492;2023-12-29T00:40:48;97855.88;;;11.54;64.30
84022;BME280;74108;48.636;9.492;2023-12-29T00:43:14;97844.41;;;11.60;63.87
84022;BME280;74108;48.636;9.492;2023-12-29T00:45:39;97843.25;;;11.51;64.43
84022;BME280;74108;48.636;9.492;2023-12-29T00:48:05;97837.25;;;11.51;64.25
84022;BME280;74108;48.636;9.492;2023-12-29T00:50:30;97830.13;;;11.51;64.27
84022;BME280;74108;48.636;9.492;2023-12-29T00:52:55;97799.66;;;11.45;63.63
84022;BME280;74108;48.636;9.492;2023-12-29T00:55:21;97817.78;;;11.47;64.70
84022;BME280;74108;48.636;9.492;2023-12-29T00:57:46;97813.22;;;11.32;64.69
84022;BME280;74108;48.636;9.492;2023-12-29T01:00:12;97816.34;;;11.29;64.42
84022;BME280;74108;48.636;9.492;2023-12-29T01:02:38;97827.56;;;11.24;64.28
84022;BME280;74108;48.636;9.492;2023-12-29T01:05:04;97823.44;;;11.34;63.63
84022;BME280;74108;48.636;9.492;2023-12-29T01:07:30;97824.75;;;11.31;64.81
84022;BME280;74108;48.636;9.492;2023-12-29T01:09:56;97825.81;;;11.30;64.02
84022;BME280;74108;48.636;9.492;2023-12-29T01:12:21;97827.88;;;11.28;64.67
84022;BME280;74108;48.636;9.492;2023-12-29T01:14:46;97823.19;;;11.35;63.61
84022;BME280;74108;48.636;9.492;2023-12-29T01:17:12;97828.69;;;11.34;64.67
84022;BME280;74108;48.636;9.492;2023-12-29T01:19:37;97825.50;;;11.26;64.23
84022;BME280;74108;48.636;9.492;2023-12-29T01:22:03;97823.66;;;11.27;63.90
84022;BME280;74108;48.636;9.492;2023-12-29T01:24:28;97829.75;;;11.33;62.52
84022;BME280;74108;48.636;9.492;2023-12-29T01:26:54;97842.19;;;11.47;62.42
84022;BME280;74108;48.636;9.492;2023-12-29T01:29:19;97840.09;;;11.49;62.46
84022;BME280;74108;48.636;9.492;2023-12-29T01:31:45;97840.84;;;11.45;62.66
84022;BME280;74108;48.636;9.492;2023-12-29T01:34:10;97850.00;;;11.37;63.42
84022;BME280;74108;48.636;9.492;2023-12-29T01:36:35;97849.78;;;11.44;63.14
84022;BME280;74108;48.636;9.492;2023-12-29T01:39:01;97852.09;;;11.40;62.17
84022;BME280;74108;48.636;9.492;2023-12-29T01:41:28;97834.03;;;11.44;62.56
84022;BME280;74108;48.636;9.492;2023-12-29T01:46:27;97849.44;;;11.35;63.63
84022;BME280;74108;48.636;9.492;2023-12-29T01:48:53;97844.16;;;11.30;63.80
84022;BME280;74108;48.636;9.492;2023-12-29T01:51:21;97839.69;;;11.30;62.85
84022;BME280;74108;48.636;9.492;2023-12-29T01:53:48;97831.81;;;11.30;63.74
84022;BME280;74108;48.636;9.492;2023-12-29T01:56:14;97828.31;;;11.20;64.78
84022;BME280;74108;48.636;9.492;2023-12-29T01:58:40;97838.75;;;11.15;64.59
84022;BME280;74108;48.636;9.492;2023-12-29T02:01:06;97844.31;;;11.18;64.57
84022;BME280;74108;48.636;9.492;2023-12-29T02:03:33;97831.75;;;11.20;64.71
84022;BME280;74108;48.636;9.492;2023-12-29T02:06:00;97830.69;;;11.21;64.48
84022;BME280;74108;48.636;9.492;2023-12-29T02:08:25;97818.25;;;11.07;65.08
84022;BME280;74108;48.636;9.492;2023-12-29T02:10:51;97823.28;;;11.13;64.69
84022;BME280;74108;48.636;9.492;2023-12-29T02:13:16;97822.66;;;11.01;65.13
84022;BME280;74108;48.636;9.492;2023-12-29T02:15:42;97816.28;;;10.92;65.85
84022;BME280;74108;48.636;9.492;2023-12-29T02:18:14;97815.94;;;10.84;66.25
84022;BME280;74108;48.636;9.492;2023-12-29T02:20:42;97821.31;;;10.72;67.48
84022;BME280;74108;48.636;9.492;2023-12-29T02:23:07;97823.00;;;10.56;67.65
84022;BME280;74108;48.636;9.492;2023-12-29T02:25:33;97815.63;;;10.53;68.46
84022;BME280;74108;48.636;9.492;2023-12-29T02:28:04;97816.16;;;10.55;67.96
84022;BME280;74108;48.636;9.492;2023-12-29T02:30:58;97826.88;;;10.54;68.73
84022;BME280;74108;48.636;9.492;2023-12-29T02:33:26;97828.72;;;10.53;68.61
84022;BME280;74108;48.636;9.492;2023-12-29T02:35:55;97812.63;;;10.45;68.51
84022;BME280;74108;48.636;9.492;2023-12-29T02:38:21;97817.19;;;10.54;68.72
84022;BME280;74108;48.636;9.492;2023-12-29T02:40:47;97814.88;;;10.58;69.07
84022;BME280;74108;48.636;9.492;2023-12-29T02:43:13;97814.34;;;10.56;69.04
84022;BME280;74108;48.636;9.492;2023-12-29T02:45:38;97812.00;;;10.59;68.04
84022;BME280;74108;48.636;9.492;2023-12-29T02:48:03;97813.28;;;10.57;68.69
84022;BME280;74108;48.636;9.492;2023-12-29T02:50:29;97810.91;;;10.55;69.86
84022;BME280;74108;48.636;9.492;2023-12-29T02:52:54;97814.56;;;10.54;69.54
84022;BME280;74108;48.636;9.492;2023-12-29T02:55:20;97818.28;;;10.58;69.88
84022;BME280;74108;48.636;9.492;2023-12-29T02:57:45;97814.94;;;10.63;69.69
84022;BME280;74108;48.636;9.492;2023-12-29T03:00:11;97809.50;;;10.70;69.28
84022;BME280;74108;48.636;9.492;2023-12-29T03:02:36;97809.25;;;10.71;69.80
84022;BME280;74108;48.636;9.492;2023-12-29T03:05:02;97805.47;;;10.62;70.14
84022;BME280;74108;48.636;9.492;2023-12-29T03:07:28;97800.19;;;10.57;70.20
84022;BME280;74108;48.636;9.492;2023-12-29T03:09:53;97803.94;;;10.66;69.70
84022;BME280;74108;48.636;9.492;2023-12-29T03:12:18;97795.84;;;10.68;70.06
84022;BME280;74108;48.636;9.492;2023-12-29T03:14:44;97793.03;;;10.74;69.33
84022;BME280;74108;48.636;9.492;2023-12-29T03:17:11;97786.41;;;10.67;70.36
84022;BME280;74108;48.636;9.492;2023-12-29T03:19:36;97785.97;;;10.75;70.01
84022;BME280;74108;48.636;9.492;2023-12-29T03:22:02;97795.44;;;10.81;69.68
84022;BME280;74108;48.636;9.492;2023-12-29T03:24:28;97787.00;;;10.74;70.02
84022;BME280;74108;48.636;9.492;2023-12-29T03:26:55;97776.03;;;10.77;69.79
84022;BME280;74108;48.636;9.492;2023-12-29T03:29:20;97771.00;;;10.75;68.92
84022;BME280;74108;48.636;9.492;2023-12-29T03:31:45;97775.09;;;10.61;69.64
84022;BME280;74108;48.636;9.492;2023-12-29T03:34:11;97775.13;;;10.66;68.89
84022;BME280;74108;48.636;9.492;2023-12-29T03:36:36;97779.59;;;10.66;69.93
84022;BME280;74108;48.636;9.492;2023-12-29T03:39:02;97778.25;;;10.63;70.10
84022;BME280;74108;48.636;9.492;2023-12-29T03:41:28;97783.72;;;10.62;69.93
84022;BME280;74108;48.636;9.492;2023-12-29T03:43:53;97767.97;;;10.56;70.87
84022;BME280;74108;48.636;9.492;2023-12-29T03:46:22;97764.50;;;10.51;70.38
84022;BME280;74108;48.636;9.492;2023-12-29T03:48:48;97763.63;;;10.45;70.55
84022;BME280;74108;48.636;9.492;2023-12-29T03:51:18;97765.44;;;10.40;70.85
84022;BME280;74108;48.636;9.492;2023-12-29T03:53:43;97762.81;;;10.40;70.69
84022;BME280;74108;48.636;9.492;2023-12-29T03:56:15;97770.13;;;10.38;70.91
84022;BME280;74108;48.636;9.492;2023-12-29T03:58:47;97768.66;;;10.47;71.22
84022;BME280;74108;48.636;9.492;2023-12-29T04:01:16;97772.63;;;10.54;70.99
84022;BME280;74108;48.636;9.492;2023-12-29T04:03:43;97766.91;;;10.57;70.78
84022;BME280;74108;48.636;9.492;2023-12-29T04:06:08;97758.84;;;10.64;70.66
84022;BME280;74108;48.636;9.492;2023-12-29T04:08:34;97753.88;;;10.63;70.16
84022;BME280;74108;48.636;9.492;2023-12-29T04:11:00;97760.28;;;10.50;71.04
84022;BME280;74108;48.636;9.492;2023-12-29T04:13:25;97778.06;;;10.48;71.16
84022;BME280;74108;48.636;9.492;2023-12-29T04:15:50;97766.44;;;10.39;71.90
84022;BME280;74108;48.636;9.492;2023-12-29T04:18:17;97762.56;;;10.41;71.58
84022;BME280;74108;48.636;9.492;2023-12-29T04:20:43;97766.50;;;10.44;71.49
84022;BME280;74108;48.636;9.492;2023-12-29T04:23:08;97770.22;;;10.48;71.70
84022;BME280;74108;48.636;9.492;2023-12-29T04:25:34;97763.41;;;10.47;72.63
84022;BME280;74108;48.636;9.492;2023-12-29T04:28:00;97763.03;;;10.38;72.76
84022;BME280;74108;48.636;9.492;2023-12-29T04:30:25;97764.56;;;10.34;72.89
84022;BME280;74108;48.636;9.492;2023-12-29T04:32:51;97774.75;;;10.31;72.70
84022;BME280;74108;48.636;9.492;2023-12-29T04:35:16;97764.56;;;10.34;72.66
84022;BME280;74108;48.636;9.492;2023-12-29T04:37:44;97764.75;;;10.28;73.52
84022;BME280;74108;48.636;9.492;2023-12-29T04:40:10;97768.72;;;10.30;73.86
84022;BME280;74108;48.636;9.492;2023-12-29T04:42:36;97759.25;;;10.24;73.26
84022;BME280;74108;48.636;9.492;2023-12-29T04:45:01;97761.00;;;10.19;73.65
84022;BME280;74108;48.636;9.492;2023-12-29T04:47:27;97768.38;;;10.22;73.91
84022;BME280;74108;48.636;9.492;2023-12-29T04:49:52;97775.38;;;10.16;73.92
84022;BME280;74108;48.636;9.492;2023-12-29T04:52:17;97772.19;;;10.14;74.61
84022;BME280;74108;48.636;9.492;2023-12-29T04:54:43;97773.28;;;10.18;74.56
84022;BME280;74108;48.636;9.492;2023-12-29T04:57:08;97770.91;;;10.38;73.42
84022;BME280;74108;48.636;9.492;2023-12-29T04:59:33;97770.41;;;10.41;73.93
84022;BME280;74108;48.636;9.492;2023-12-29T05:01:59;97772.56;;;10.44;73.25
84022;BME280;74108;48.636;9.492;2023-12-29T05:04:24;97769.81;;;10.34;73.83
84022;BME280;74108;48.636;9.492;2023-12-29T05:06:50;97768.34;;;10.43;73.71
84022;BME280;74108;48.636;9.492;2023-12-29T05:09:15;97778.81;;;10.43;73.45
84022;BME280;74108;48.636;9.492;2023-12-29T05:11:40;97774.69;;;10.47;73.60
84022;BME280;74108;48.636;9.492;2023-12-29T05:14:06;97771.47;;;10.40;74.36
84022;BME280;74108;48.636;9.492;2023-12-29T05:16:31;97767.00;;;10.41;73.47
84022;BME280;74108;48.636;9.492;2023-12-29T05:18:57;97766.78;;;10.42;73.44
84022;BME280;74108;48.636;9.492;2023-12-29T05:21:22;97764.69;;;10.44;73.76
84022;BME280;74108;48.636;9.492;2023-12-29T05:23:49;97762.13;;;10.49;74.39
84022;BME280;74108;48.636;9.492;2023-12-29T05:26:15;97757.13;;;10.48;73.48
84022;BME280;74108;48.636;9.492;2023-12-29T05:28:40;97767.50;;;10.38;73.89
84022;BME280;74108;48.636;9.492;2023-12-29T05:31:06;97760.94;;;10.35;73.91
84022;BME280;74108;48.636;9.492;2023-12-29T05:33:32;97761.13;;;10.29;73.53
84022;BME280;74108;48.636;9.492;2023-12-29T05:35:58;97765.50;;;10.23;74.51
84022;BME280;74108;48.636;9.492;2023-12-29T05:38:23;97770.19;;;10.21;74.71
84022;BME280;74108;48.636;9.492;2023-12-29T05:40:50;97763.75;;;10.29;74.35
84022;BME280;74108;48.636;9.492;2023-12-29T05:43:16;97776.09;;;10.33;74.32
84022;BME280;74108;48.636;9.492;2023-12-29T05:45:41;97773.72;;;10.32;74.29
84022;BME280;74108;48.636;9.492;2023-12-29T05:48:07;97773.91;;;10.25;74.06
84022;BME280;74108;48.636;9.492;2023-12-29T05:50:33;97773.09;;;10.25;74.69
84022;BME280;74108;48.636;9.492;2023-12-29T05:52:58;97773.00;;;10.15;75.05
84022;BME280;74108;48.636;9.492;2023-12-29T05:55:24;97776.91;;;10.12;75.22
84022;BME280;74108;48.636;9.492;2023-12-29T05:57:49;97772.75;;;10.16;75.14
84022;BME280;74108;48.636;9.492;2023-12-29T06:00:15;97774.69;;;10.26;74.75
84022;BME280;74108;48.636;9.492;2023-12-29T06:02:41;97773.66;;;10.27;74.02
84022;BME280;74108;48.636;9.492;2023-12-29T06:05:07;97780.47;;;10.28;74.87
84022;BME280;74108;48.636;9.492;2023-12-29T06:07:33;97774.50;;;10.32;74.11
84022;BME280;74108;48.636;9.492;2023-12-29T06:09:59;97770.47;;;10.25;74.46
84022;BME280;74108;48.636;9.492;2023-12-29T06:12:24;97781.22;;;10.23;75.03
84022;BME280;74108;48.636;9.492;2023-12-29T06:14:50;97782.00;;;10.24;74.88
84022;BME280;74108;48.636;9.492;2023-12-29T06:17:15;97778.66;;;10.28;74.81
84022;BME280;74108;48.636;9.492;2023-12-29T06:19:41;97797.53;;;10.30;75.30
84022;BME280;74108;48.636;9.492;2023-12-29T06:22:06;97799.22;;;10.41;74.83
84022;BME280;74108;48.636;9.492;2023-12-29T06:24:37;97798.19;;;10.42;74.32
84022;BME280;74108;48.636;9.492;2023-12-29T06:27:02;97796.41;;;10.48;75.07
84022;BME280;74108;48.636;9.492;2023-12-29T06:29:28;97787.06;;;10.57;73.92
84022;BME280;74108;48.636;9.492;2023-12-29T06:31:53;97795.75;;;10.57;74.82
84022;BME280;74108;48.636;9.492;2023-12-29T06:34:18;97792.84;;;10.59;74.10
84022;BME280;74108;48.636;9.492;2023-12-29T06:36:44;97788.22;;;10.66;74.28
84022;BME280;74108;48.636;9.492;2023-12-29T06:39:09;97792.38;;;10.62;74.81
84022;BME280;74108;48.636;9.492;2023-12-29T06:41:35;97791.03;;;10.59;74.10
84022;BME280;74108;48.636;9.492;2023-12-29T06:44:00;97790.97;;;10.54;74.59
84022;BME280;74108;48.636;9.492;2023-12-29T06:46:26;97766.78;;;10.42;75.36
84022;BME280;74108;48.636;9.492;2023-12-29T06:48:51;97778.34;;;10.46;74.66
84022;BME280;74108;48.636;9.492;2023-12-29T06:51:17;97792.72;;;10.44;74.85
84022;BME280;74108;48.636;9.492;2023-12-29T06:53:45;97783.41;;;10.31;75.55
84022;BME280;74108;48.636;9.492;2023-12-29T06:56:15;97776.59;;;10.30;74.92
84022;BME280;74108;48.636;9.492;2023-12-29T06:58:41;97779.88;;;10.21;75.29
84022;BME280;74108;48.636;9.492;2023-12-29T07:01:06;97786.19;;;10.25;75.46
84022;BME280;74108;48.636;9.492;2023-12-29T07:03:32;97778.88;;;10.27;74.93
84022;BME280;74108;48.636;9.492;2023-12-29T07:06:00;97777.38;;;10.31;75.11
84022;BME280;74108;48.636;9.492;2023-12-29T07:08:26;97781.50;;;10.27;75.13
84022;BME280;74108;48.636;9.492;2023-12-29T07:10:52;97785.84;;;10.38;74.77
84022;BME280;74108;48.636;9.492;2023-12-29T07:13:18;97779.19;;;10.30;75.10
84022;BME280;74108;48.636;9.492;2023-12-29T07:15:45;97782.22;;;10.44;74.54
84022;BME280;74108;48.636;9.492;2023-12-29T07:18:10;97779.41;;;10.50;74.53
84022;BME280;74108;48.636;9.492;2023-12-29T07:20:35;97791.38;;;10.41;75.17
84022;BME280;74108;48.636;9.492;2023-12-29T07:23:01;97787.47;;;10.44;74.68
84022;BME280;74108;48.636;9.492;2023-12-29T07:25:27;97789.22;;;10.60;74.46
84022;BME280;74108;48.636;9.492;2023-12-29T07:27:55;97790.25;;;10.59;73.81
84022;BME280;74108;48.636;9.492;2023-12-29T07:30:20;97782.88;;;10.56;74.88
84022;BME280;74108;48.636;9.492;2023-12-29T07:32:46;97779.28;;;10.62;74.97
84022;BME280;74108;48.636;9.492;2023-12-29T07:35:11;97778.06;;;10.70;73.70
84022;BME280;74108;48.636;9.492;2023-12-29T07:37:40;97772.75;;;10.65;74.57
84022;BME280;74108;48.636;9.492;2023-12-29T07:40:06;97772.91;;;10.53;74.81
84022;BME280;74108;48.636;9.492;2023-12-29T07:42:33;97777.44;;;10.63;74.51
84022;BME280;74108;48.636;9.492;2023-12-29T07:44:58;97776.16;;;10.65;74.24
84022;BME280;74108;48.636;9.492;2023-12-29T07:47:23;97777.84;;;10.76;74.25
84022;BME280;74108;48.636;9.492;2023-12-29T07:49:49;97778.09;;;10.75;74.37
84022;BME280;74108;48.636;9.492;2023-12-29T07:52:14;97775.44;;;10.70;74.35
84022;BME280;74108;48.636;9.492;2023-12-29T07:54:40;97774.44;;;10.76;74.06
84022;BME280;74108;48.636;9.492;2023-12-29T07:57:05;97774.28;;;10.87;73.53
84022;BME280;74108;48.636;9.492;2023-12-29T07:59:30;97786.91;;;10.90;73.73
84022;BME280;74108;48.636;9.492;2023-12-29T08:01:56;97786.34;;;10.88;73.84
84022;BME280;74108;48.636;9.492;2023-12-29T08:04:22;97777.25;;;10.96;73.97
84022;BME280;74108;48.636;9.492;2023-12-29T08:06:48;97778.19;;;10.85;73.71
84022;BME280;74108;48.636;9.492;2023-12-29T08:09:14;97782.94;;;10.88;73.61
84022;BME280;74108;48.636;9.492;2023-12-29T08:11:39;97786.44;;;10.98;73.57
84022;BME280;74108;48.636;9.492;2023-12-29T08:14:06;97791.56;;;11.15;72.04
84022;BME280;74108;48.636;9.492;2023-12-29T08:16:38;97780.84;;;11.16;71.96
84022;BME280;74108;48.636;9.492;2023-12-29T08:19:03;97776.13;;;11.18;71.88
84022;BME280;74108;48.636;9.492;2023-12-29T08:21:29;97776.16;;;11.23;71.83
84022;BME280;74108;48.636;9.492;2023-12-29T08:23:54;97779.59;;;11.29;70.63
84022;BME280;74108;48.636;9.492;2023-12-29T08:26:19;97792.91;;;11.54;70.35
84022;BME280;74108;48.636;9.492;2023-12-29T08:28:45;97792.25;;;11.69;70.15
84022;BME280;74108;48.636;9.492;2023-12-29T08:31:10;97784.97;;;11.81;70.02
84022;BME280;74108;48.636;9.492;2023-12-29T08:33:36;97794.78;;;11.59;70.10
84022;BME280;74108;48.636;9.492;2023-12-29T08:36:02;97799.78;;;11.60;70.61
84022;BME280;74108;48.636;9.492;2023-12-29T08:38:29;97794.78;;;11.59;69.91
84022;BME280;74108;48.636;9.492;2023-12-29T08:40:55;97796.38;;;11.60;69.33
84022;BME280;74108;48.636;9.492;2023-12-29T08:43:21;97784.41;;;11.79;69.09
84022;BME280;74108;48.636;9.492;2023-12-29T08:45:47;97788.47;;;11.96;68.21
84022;BME280;74108;48.636;9.492;2023-12-29T08:48:13;97776.50;;;12.26;67.38
84022;BME280;74108;48.636;9.492;2023-12-29T08:50:38;97782.56;;;12.36;66.85
84022;BME280;74108;48.636;9.492;2023-12-29T08:53:04;97782.84;;;12.35;66.57
84022;BME280;74108;48.636;9.492;2023-12-29T08:55:29;97775.66;;;12.10;67.89
84022;BME280;74108;48.636;9.492;2023-12-29T08:57:56;97776.78;;;12.34;66.74
84022;BME280;74108;48.636;9.492;2023-12-29T09:00:22;97775.53;;;12.47;66.78
84022;BME280;74108;48.636;9.492;2023-12-29T09:02:47;97778.44;;;12.45;66.94
84022;BME280;74108;48.636;9.492;2023-12-29T09:05:13;97772.06;;;12.31;66.95
84022;BME280;74108;48.636;9.492;2023-12-29T09:07:38;97779.22;;;12.41;66.78
84022;BME280;74108;48.636;9.492;2023-12-29T09:10:04;97785.00;;;12.43;67.31
84022;BME280;74108;48.636;9.492;2023-12-29T09:12:33;97780.50;;;12.33;67.07
84022;BME280;74108;48.636;9.492;2023-12-29T09:15:00;97784.97;;;12.38;67.11
84022;BME280;74108;48.636;9.492;2023-12-29T09:17:25;97791.97;;;12.12;68.65
84022;BME280;74108;48.636;9.492;2023-12-29T09:19:50;97793.81;;;12.17;67.61
84022;BME280;74108;48.636;9.492;2023-12-29T09:22:16;97793.28;;;12.15;67.94
84022;BME280;74108;48.636;9.492;2023-12-29T09:24:42;97788.88;;;12.30;67.41
84022;BME280;74108;48.636;9.492;2023-12-29T09:27:07;97788.38;;;12.33;67.99
84022;BME280;74108;48.636;9.492;2023-12-29T09:29:33;97795.25;;;12.49;66.38
84022;BME280;74108;48.636;9.492;2023-12-29T09:31:59;97789.44;;;12.37;67.11
84022;BME280;74108;48.636;9.492;2023-12-29T09:34:24;97800.97;;;12.31;67.86
84022;BME280;74108;48.636;9.492;2023-12-29T09:36:49;97799.88;;;12.27;67.45
84022;BME280;74108;48.636;9.492;2023-12-29T09:39:15;97796.81;;;12.50;66.40
84022;BME280;74108;48.636;9.492;2023-12-29T09:41:43;97799.97;;;12.52;66.46
84022;BME280;74108;48.636;9.492;2023-12-29T09:44:14;97806.56;;;12.50;66.34
84022;BME280;74108;48.636;9.492;2023-12-29T09:46:41;97799.97;;;12.42;67.08
84022;BME280;74108;48.636;9.492;2023-12-29T09:49:09;97809.19;;;12.45;67.40
84022;BME280;74108;48.636;9.492;2023-12-29T09:51:37;97805.47;;;12.46;67.07
84022;BME280;74108;48.636;9.492;2023-12-29T09:54:03;97811.22;;;12.33;67.13
84022;BME280;74108;48.636;9.492;2023-12-29T09:56:28;97811.50;;;12.31;67.78
84022;BME280;74108;48.636;9.492;2023-12-29T09:58:54;97817.31;;;12.38;67.97
84022;BME280;74108;48.636;9.492;2023-12-29T10:01:21;97813.28;;;12.26;67.43
84022;BME280;74108;48.636;9.492;2023-12-29T10:03:47;97803.16;;;12.49;66.85
84022;BME280;74108;48.636;9.492;2023-12-29T10:06:16;97810.44;;;12.37;66.91
84022;BME280;74108;48.636;9.492;2023-12-29T10:08:47;97808.91;;;12.46;65.78
84022;BME280;74108;48.636;9.492;2023-12-29T10:11:20;97813.88;;;12.38;67.21
84022;BME280;74108;48.636;9.492;2023-12-29T10:13:49;97807.88;;;12.47;66.64
84022;BME280;74108;48.636;9.492;2023-12-29T10:16:24;97803.88;;;12.35;66.30
84022;BME280;74108;48.636;9.492;2023-12-29T10:24:18;97800.72;;;12.38;66.95
84022;BME280;74108;48.636;9.492;2023-12-29T10:26:44;97791.53;;;12.35;66.21
84022;BME280;74108;48.636;9.492;2023-12-29T10:29:11;97785.22;;;12.36;66.51
84022;BME280;74108;48.636;9.492;2023-12-29T10:31:37;97785.22;;;12.41;66.37
84022;BME280;74108;48.636;9.492;2023-12-29T10:36:47;97775.00;;;12.55;65.80
84022;BME280;74108;48.636;9.492;2023-12-29T10:39:13;97783.72;;;12.60;64.62
84022;BME280;74108;48.636;9.492;2023-12-29T10:41:38;97781.84;;;12.51;66.02
84022;BME280;74108;48.636;9.492;2023-12-29T10:44:06;97777.34;;;12.41;65.85
84022;BME280;74108;48.636;9.492;2023-12-29T10:46:32;97770.78;;;12.44;65.28
84022;BME280;74108;48.636;9.492;2023-12-29T10:49:10;97771.34;;;12.56;65.19
84022;BME280;74108;48.636;9.492;2023-12-29T10:51:36;97766.94;;;12.82;65.55
84022;BME280;74108;48.636;9.492;2023-12-29T10:54:05;97763.81;;;13.30;64.02
84022;BME280;74108;48.636;9.492;2023-12-29T10:56:31;97761.63;;;13.77;61.93
84022;BME280;74108;48.636;9.492;2023-12-29T10:59:03;97763.44;;;13.87;62.13
84022;BME280;74108;48.636;9.492;2023-12-29T11:01:36;97743.41;;;13.96;61.18
84022;BME280;74108;48.636;9.492;2023-12-29T11:04:03;97747.06;;;14.05;60.74
84022;BME280;74108;48.636;9.492;2023-12-29T11:06:30;97747.41;;;13.83;61.18
84022;BME280;74108;48.636;9.492;2023-12-29T11:09:04;97750.28;;;13.92;61.32
84022;BME280;74108;48.636;9.492;2023-12-29T11:11:31;97731.81;;;13.97;59.52
84022;BME280;74108;48.636;9.492;2023-12-29T11:13:57;97737.91;;;13.87;60.62
84022;BME280;74108;48.636;9.492;2023-12-29T11:16:24;97734.47;;;13.82;60.37
84022;BME280;74108;48.636;9.492;2023-12-29T11:18:51;97733.94;;;13.95;60.52
84022;BME280;74108;48.636;9.492;2023-12-29T11:21:19;97725.31;;;13.74;59.05
84022;BME280;74108;48.636;9.492;2023-12-29T11:23:47;97711.59;;;13.72;58.83
84022;BME280;74108;48.636;9.492;2023-12-29T11:26:12;97721.06;;;13.83;58.61
84022;BME280;74108;48.636;9.492;2023-12-29T11:28:38;97714.94;;;13.93;59.43
84022;BME280;74108;48.636;9.492;2023-12-29T11:31:03;97712.09;;;13.84;59.10
84022;BME280;74108;48.636;9.492;2023-12-29T11:33:34;97721.38;;;13.67;58.58
84022;BME280;74108;48.636;9.492;2023-12-29T11:36:05;97717.50;;;13.39;60.23
84022;BME280;74108;48.636;9.492;2023-12-29T11:41:25;97721.47;;;13.21;60.00
84022;BME280;74108;48.636;9.492;2023-12-29T11:43:58;97718.81;;;13.31;60.49
84022;BME280;74108;48.636;9.492;2023-12-29T11:46:37;97719.31;;;13.33;60.82
84022;BME280;74108;48.636;9.492;2023-12-29T11:49:03;97718.78;;;13.47;61.14
84022;BME280;74108;48.636;9.492;2023-12-29T11:51:39;97712.50;;;13.38;60.39
84022;BME280;74108;48.636;9.492;2023-12-29T11:54:06;97705.13;;;13.24;61.15
84022;BME280;74108;48.636;9.492;2023-12-29T11:56:34;97712.25;;;13.09;61.31
84022;BME280;74108;48.636;9.492;2023-12-29T11:59:17;97700.13;;;13.03;61.68
84022;BME280;74108;48.636;9.492;2023-12-29T12:01:44;97701.44;;;13.00;62.55
84022;BME280;74108;48.636;9.492;2023-12-29T12:07:03;97696.19;;;12.95;62.23
84022;BME280;74108;48.636;9.492;2023-12-29T12:09:28;97701.97;;;13.02;62.21
84022;BME280;74108;48.636;9.492;2023-12-29T12:11:54;97705.13;;;12.99;62.42
84022;BME280;74108;48.636;9.492;2023-12-29T12:14:48;97698.31;;;13.23;61.01
84022;BME280;74108;48.636;9.492;2023-12-29T12:19:56;97700.09;;;13.38;61.16
84022;BME280;74108;48.636;9.492;2023-12-29T12:22:23;97694.47;;;13.75;60.35
84022;BME280;74108;48.636;9.492;2023-12-29T12:24:55;97692.81;;;13.99;58.68
84022;BME280;74108;48.636;9.492;2023-12-29T12:27:20;97692.78;;;14.04;59.15
84022;BME280;74108;48.636;9.492;2023-12-29T12:29:52;97691.47;;;14.06;59.33
84022;BME280;74108;48.636;9.492;2023-12-29T12:32:20;97688.44;;;13.74;59.19
84022;BME280;74108;48.636;9.492;2023-12-29T12:34:47;97688.38;;;13.84;59.32
84022;BME280;74108;48.636;9.492;2023-12-29T12:37:18;97686.53;;;13.85;59.63
84022;BME280;74108;48.636;9.492;2023-12-29T12:39:43;97680.34;;;13.51;60.09
84022;BME280;74108;48.636;9.492;2023-12-29T12:42:09;97680.63;;;13.34;61.13
84022;BME280;74108;48.636;9.492;2023-12-29T12:44:38;97677.78;;;13.20;61.34
84022;BME280;74108;48.636;9.492;2023-12-29T12:47:14;97677.78;;;13.15;60.22
84022;BME280;74108;48.636;9.492;2023-12-29T12:49:40;97675.94;;;13.11;61.45
84022;BME280;74108;48.636;9.492;2023-12-29T12:52:07;97661.44;;;13.03;61.30
84022;BME280;74108;48.636;9.492;2023-12-29T12:54:32;97671.44;;;12.96;61.24
84022;BME280;74108;48.636;9.492;2023-12-29T12:56:58;97656.97;;;13.04;60.62
84022;BME280;74108;48.636;9.492;2023-12-29T12:59:23;97659.38;;;13.00;61.29
84022;BME280;74108;48.636;9.492;2023-12-29T13:01:49;97659.09;;;13.02;61.08
84022;BME280;74108;48.636;9.492;2023-12-29T13:04:15;97651.75;;;12.94;60.79
84022;BME280;74108;48.636;9.492;2023-12-29T13:06:42;97674.09;;;12.86;61.66
84022;BME280;74108;48.636;9.492;2023-12-29T13:09:12;97664.09;;;12.78;61.12
84022;BME280;74108;48.636;9.492;2023-12-29T13:11:39;97667.00;;;12.77;60.71
84022;BME280;74108;48.636;9.492;2023-12-29T13:14:07;97665.66;;;12.64;60.86
84022;BME280;74108;48.636;9.492;2023-12-29T13:16:35;97662.53;;;12.67;60.71